Willow Run, Michigan
Current Conditions -  °F | °C
As of 11:53 PM on Thursday 30 Oct 2014 (Local Time) from KYIP Reporting Station
Overcast Overcast  
Wind Chill: 45°   Ceiling: 6000
Heat Index: 48°   Visibility: 10mi
Dew Point: 37°   Wind: 6mph
Humidity: 66%   Direction: 220°SW
Pressure: 30.02"   Gusts: NA
Location:  42.272°N, 83.5839°W
Report Text: KYIP 310353Z AUTO 22005KT 10SM BKN060 OVC110 09/03 A3002 RMK AO2 SLP164 T00890028 TSNO
Loading
Personal Weather Stations






























Interactive Weather Map
Tropical Storm Tracking
New forecast layout! Learn more

10-Day Weather Forecast

Advertisements
Track Severe Weather on mobile